createdAt,value
2018-02-24T00:01:40.058Z,64.90
2018-02-24T00:04:08.514Z,65.30
2018-02-24T00:06:37.093Z,64.70
2018-02-24T00:09:04.891Z,65.40
2018-02-24T00:11:34.072Z,65.00
2018-02-24T00:14:02.518Z,65.60
2018-02-24T00:16:31.723Z,65.50
2018-02-24T00:19:00.202Z,66.00
2018-02-24T00:21:28.663Z,65.80
2018-02-24T00:23:57.127Z,65.40
2018-02-24T00:26:25.572Z,64.70
2018-02-24T00:28:54.788Z,64.80
2018-02-24T00:31:23.274Z,65.40
2018-02-24T00:33:51.732Z,65.40
2018-02-24T00:36:20.158Z,64.70
2018-02-24T00:38:48.602Z,65.00
2018-02-24T00:41:17.068Z,63.90
2018-02-24T00:43:45.372Z,64.90
2018-02-24T00:46:13.815Z,64.50
2018-02-24T00:48:42.242Z,64.80
2018-02-24T00:51:11.312Z,64.10
2018-02-24T00:53:39.566Z,64.70
2018-02-24T00:56:09.359Z,63.00
2018-02-24T00:58:37.683Z,63.30
2018-02-24T01:01:07.994Z,64.00
2018-02-24T01:03:40.447Z,64.40
2018-02-24T01:06:09.703Z,64.90
2018-02-24T01:08:39.765Z,64.70
2018-02-24T01:11:09.018Z,64.90
2018-02-24T01:13:37.440Z,65.20
2018-02-24T01:16:07.138Z,64.30
2018-02-24T01:18:35.594Z,65.20
2018-02-24T01:21:04.593Z,64.30
2018-02-24T01:23:33.620Z,63.90
2018-02-24T01:26:02.159Z,64.40
2018-02-24T01:28:30.635Z,63.30
2018-02-24T01:30:59.900Z,63.30
2018-02-24T01:33:28.341Z,63.80
2018-02-24T01:35:56.771Z,63.30
2018-02-24T01:38:25.984Z,62.60
2018-02-24T01:40:54.411Z,63.10
2018-02-24T01:43:23.633Z,62.20
2018-02-24T01:45:52.071Z,62.90
2018-02-24T01:48:20.513Z,63.30
2018-02-24T01:50:49.727Z,63.50
2018-02-24T01:53:18.175Z,63.80
2018-02-24T01:55:46.640Z,63.50
2018-02-24T01:58:15.115Z,63.30
2018-02-24T02:00:43.576Z,62.50
2018-02-24T02:03:12.034Z,62.70
2018-02-24T02:05:40.470Z,62.80
2018-02-24T02:08:09.167Z,62.50
2018-02-24T02:10:37.886Z,63.30
2018-02-24T02:13:06.011Z,63.00
2018-02-24T02:15:35.198Z,63.00
2018-02-24T02:18:03.609Z,63.40
2018-02-24T02:20:32.021Z,63.20
2018-02-24T02:23:00.442Z,63.40
2018-02-24T02:25:28.908Z,63.50
2018-02-24T02:27:57.348Z,64.00
2018-02-24T02:30:25.767Z,63.60
2018-02-24T02:32:54.228Z,63.80
2018-02-24T02:35:22.318Z,63.80
2018-02-24T02:37:50.438Z,63.20
2018-02-24T02:40:19.087Z,62.70
2018-02-24T02:42:47.561Z,62.80
2018-02-24T02:45:15.982Z,63.50
2018-02-24T02:47:45.222Z,62.80
2018-02-24T02:50:13.656Z,63.50
2018-02-24T02:52:42.130Z,63.90
2018-02-24T02:55:10.567Z,64.40
2018-02-24T02:57:39.736Z,64.90
2018-02-24T03:00:09.110Z,65.60
2018-02-24T03:02:38.886Z,65.50
2018-02-24T03:05:07.596Z,65.90
2018-02-24T03:07:36.958Z,65.90
2018-02-24T03:10:05.811Z,65.40
2018-02-24T03:12:34.232Z,65.90
2018-02-24T03:15:05.910Z,66.70
2018-02-24T03:17:34.372Z,66.70
2018-02-24T03:20:02.860Z,66.80
2018-02-24T03:22:31.342Z,67.10
2018-02-24T03:24:59.781Z,66.00
2018-02-24T03:27:29.249Z,64.40
2018-02-24T03:29:57.380Z,65.00
2018-02-24T03:32:25.874Z,64.20
2018-02-24T03:34:54.333Z,64.40
2018-02-24T03:37:22.837Z,64.70
2018-02-24T03:39:51.351Z,64.20
2018-02-24T03:42:20.065Z,64.40
2018-02-24T03:44:48.570Z,64.50
2018-02-24T03:47:17.047Z,64.00
2018-02-24T03:49:45.308Z,64.30
2018-02-24T03:52:13.849Z,63.80
2018-02-24T03:54:42.085Z,64.30
2018-02-24T03:57:10.790Z,64.50
2018-02-24T03:59:41.731Z,64.10
2018-02-24T04:02:10.446Z,63.50
2018-02-24T04:04:39.724Z,63.60
2018-02-24T04:07:08.790Z,63.70
2018-02-24T04:09:37.466Z,63.50
2018-02-24T04:12:07.828Z,63.40
2018-02-24T04:14:36.568Z,63.50
2018-02-24T04:17:04.788Z,63.50
2018-02-24T04:19:33.759Z,63.90
2018-02-24T04:22:02.434Z,63.90
2018-02-24T04:24:31.095Z,63.50
2018-02-24T04:26:59.774Z,63.90
2018-02-24T04:29:28.445Z,63.90
2018-02-24T04:31:57.879Z,64.00
2018-02-24T04:34:26.607Z,64.00
2018-02-24T04:36:55.297Z,64.10
2018-02-24T04:39:24.076Z,64.10
2018-02-24T04:41:52.749Z,64.10
2018-02-24T04:44:21.419Z,65.10
2018-02-24T04:46:50.084Z,66.00
2018-02-24T04:49:18.746Z,65.70
2018-02-24T04:51:48.186Z,65.40
2018-02-24T04:54:16.846Z,65.40
2018-02-24T04:56:45.568Z,65.30
2018-02-24T04:59:13.901Z,64.60
2018-02-24T05:01:43.356Z,65.00
2018-02-24T05:04:12.022Z,65.00
2018-02-24T05:06:40.677Z,65.00
2018-02-24T05:09:09.414Z,64.90
2018-02-24T05:11:38.082Z,64.50
2018-02-24T05:14:07.395Z,64.70
2018-02-24T05:16:36.057Z,64.40
2018-02-24T05:19:04.747Z,64.40
2018-02-24T05:21:33.405Z,64.50
2018-02-24T05:24:02.082Z,64.90
2018-02-24T05:26:31.556Z,65.10
2018-02-24T05:29:00.264Z,65.00
2018-02-24T05:31:29.706Z,65.30
2018-02-24T05:33:58.366Z,65.20
2018-02-24T05:36:27.029Z,65.20
2018-02-24T05:38:56.458Z,64.40
2018-02-24T05:41:25.122Z,64.40
2018-02-24T05:43:54.571Z,64.60
2018-02-24T05:46:23.262Z,64.60
2018-02-24T05:48:51.928Z,64.60
2018-02-24T05:51:20.595Z,64.50
2018-02-24T05:53:49.285Z,64.20
2018-02-24T05:56:17.955Z,64.60
2018-02-24T05:58:46.678Z,64.40
2018-02-24T06:01:15.354Z,64.40
2018-02-24T06:03:44.048Z,64.40
2018-02-24T06:06:12.713Z,64.60
2018-02-24T06:08:41.422Z,64.10
2018-02-24T06:11:10.106Z,64.50
2018-02-24T06:13:38.767Z,65.20
2018-02-24T06:16:07.902Z,65.40
2018-02-24T06:18:37.850Z,64.70
2018-02-24T06:21:07.863Z,65.00
2018-02-24T06:23:37.831Z,64.80
2018-02-24T06:26:06.720Z,64.80
2018-02-24T06:28:35.067Z,64.80
2018-02-24T06:31:03.732Z,64.70
2018-02-24T06:33:33.174Z,65.80
2018-02-24T06:36:01.830Z,65.80
2018-02-24T06:38:30.491Z,65.10
2018-02-24T06:40:58.967Z,65.80
2018-02-24T06:43:27.444Z,65.60
2018-02-24T06:45:56.124Z,65.50
2018-02-24T06:48:24.791Z,65.60
2018-02-24T06:50:53.471Z,65.00
2018-02-24T06:53:22.130Z,65.00
2018-02-24T06:55:50.806Z,64.90
2018-02-24T06:58:19.475Z,65.20
2018-02-24T07:00:48.910Z,65.70
2018-02-24T07:03:17.793Z,65.60
2018-02-24T07:05:46.442Z,65.50
2018-02-24T07:08:15.863Z,65.30
2018-02-24T07:10:45.300Z,65.30
2018-02-24T07:13:14.006Z,65.30
2018-02-24T07:15:42.651Z,65.20
2018-02-24T07:18:11.330Z,65.40
2018-02-24T07:20:40.001Z,65.90
2018-02-24T07:23:09.436Z,65.60
2018-02-24T07:25:38.103Z,65.60
2018-02-24T07:28:07.466Z,65.60
2018-02-24T07:30:36.147Z,64.60
2018-02-24T07:33:04.806Z,65.90
2018-02-24T07:35:36.799Z,65.60
2018-02-24T07:38:05.511Z,65.60
2018-02-24T07:40:37.362Z,65.60
2018-02-24T07:43:07.471Z,65.10
2018-02-24T07:45:36.968Z,64.90
2018-02-24T07:48:05.649Z,64.80
2018-02-24T07:50:34.314Z,64.40
2018-02-24T07:53:03.008Z,64.90
2018-02-24T07:55:31.671Z,65.00
2018-02-24T07:58:00.330Z,64.30
2018-02-24T08:00:29.032Z,64.30
2018-02-24T08:02:57.684Z,65.20
2018-02-24T08:05:26.364Z,64.00
2018-02-24T08:07:55.785Z,64.70
2018-02-24T08:10:24.518Z,64.70
2018-02-24T08:12:53.187Z,64.00
2018-02-24T08:15:21.906Z,63.20
2018-02-24T08:17:51.354Z,64.10
2018-02-24T08:20:20.023Z,64.10
2018-02-24T08:22:48.709Z,63.60
2018-02-24T08:25:17.755Z,63.30
2018-02-24T08:27:47.235Z,63.20
2018-02-24T08:30:15.659Z,63.20
2018-02-24T08:32:44.233Z,63.80
2018-02-24T08:35:12.670Z,62.60
2018-02-24T08:37:41.350Z,62.80
2018-02-24T08:40:09.763Z,63.40
2018-02-24T08:42:38.939Z,63.90
2018-02-24T08:45:07.341Z,63.90
2018-02-24T08:47:36.007Z,63.30
2018-02-24T08:50:04.767Z,63.70
2018-02-24T08:52:33.191Z,64.00
2018-02-24T08:55:02.349Z,62.50
2018-02-24T08:57:30.752Z,62.40
2018-02-24T08:59:59.927Z,63.00
2018-02-24T09:02:28.308Z,62.90
2018-02-24T09:04:56.719Z,62.10
2018-02-24T09:07:25.105Z,63.00
2018-02-24T09:09:54.552Z,63.50
2018-02-24T09:12:22.958Z,62.70
2018-02-24T09:14:51.389Z,61.50
2018-02-24T09:17:19.794Z,62.70
2018-02-24T09:19:48.181Z,63.80
2018-02-24T09:22:16.582Z,63.30
2018-02-24T09:24:45.743Z,63.00
2018-02-24T09:27:14.138Z,63.00
2018-02-24T09:29:42.529Z,64.00
2018-02-24T09:32:11.668Z,62.90
2018-02-24T09:34:40.089Z,62.80
2018-02-24T09:37:09.082Z,62.50
2018-02-24T09:39:37.964Z,60.40
2018-02-24T09:42:06.622Z,61.90
2018-02-24T09:44:35.037Z,62.40
2018-02-24T09:47:04.189Z,62.30
2018-02-24T09:49:32.598Z,62.30
2018-02-24T09:52:00.982Z,60.80
2018-02-24T09:54:30.205Z,63.60
2018-02-24T09:56:58.589Z,63.60
2018-02-24T09:59:26.975Z,61.90
2018-02-24T10:01:55.637Z,61.90
2018-02-24T10:04:24.099Z,60.10
2018-02-24T10:06:52.676Z,60.60
2018-02-24T10:09:21.062Z,61.80
2018-02-24T10:11:50.250Z,59.90
2018-02-24T10:14:18.637Z,59.90
2018-02-24T10:16:47.787Z,61.90
2018-02-24T10:19:16.196Z,61.80
2018-02-24T10:21:44.572Z,63.00
2018-02-24T10:24:13.031Z,62.30
2018-02-24T10:26:41.427Z,60.70
2018-02-24T10:29:09.809Z,61.60
2018-02-24T10:31:38.269Z,60.10
2018-02-24T10:34:08.195Z,60.20
2018-02-24T10:36:36.676Z,60.00
2018-02-24T10:39:04.407Z,59.50
2018-02-24T10:41:32.826Z,58.80
2018-02-24T10:44:01.211Z,58.50
2018-02-24T10:46:30.365Z,59.70
2018-02-24T10:49:10.014Z,59.70
2018-02-24T10:51:39.960Z,60.10
2018-02-24T10:54:09.910Z,59.00
2018-02-24T10:56:38.296Z,58.90
2018-02-24T10:59:06.766Z,59.00
2018-02-24T11:01:35.141Z,58.90
2018-02-24T11:04:03.533Z,56.80
2018-02-24T11:06:31.941Z,58.00
2018-02-24T11:09:00.341Z,59.00
2018-02-24T11:11:29.510Z,59.30
2018-02-24T11:13:57.948Z,59.20
2018-02-24T11:16:26.341Z,58.60
2018-02-24T11:18:54.747Z,57.40
2018-02-24T11:21:23.160Z,56.80
2018-02-24T11:23:52.327Z,57.20
2018-02-24T11:26:20.719Z,57.10
2018-02-24T11:28:49.894Z,58.30
2018-02-24T11:31:18.311Z,58.30
2018-02-24T11:33:46.905Z,57.30
2018-02-24T11:36:15.288Z,57.80
2018-02-24T11:38:44.283Z,56.70
2018-02-24T11:41:12.677Z,56.80
2018-02-24T11:43:40.885Z,57.00
2018-02-24T11:46:10.289Z,55.70
2018-02-24T11:48:39.414Z,55.50
2018-02-24T11:51:07.812Z,55.10
2018-02-24T11:53:36.199Z,55.70
2018-02-24T11:56:05.366Z,57.00
2018-02-24T11:58:33.766Z,56.50
2018-02-24T12:01:02.142Z,54.00
2018-02-24T12:03:30.556Z,56.50
2018-02-24T12:05:59.148Z,55.60
2018-02-24T12:08:27.516Z,56.80
2018-02-24T12:10:55.910Z,55.90
2018-02-24T12:13:25.063Z,57.20
2018-02-24T12:15:53.465Z,57.10
2018-02-24T12:18:21.847Z,53.00
2018-02-24T12:20:50.225Z,55.00
2018-02-24T12:23:18.626Z,54.50
2018-02-24T12:25:47.786Z,52.80
2018-02-24T12:28:16.177Z,52.70
2018-02-24T12:30:44.795Z,54.60
2018-02-24T12:33:13.867Z,52.50
2018-02-24T12:35:42.259Z,54.40
2018-02-24T12:38:10.646Z,55.70
2018-02-24T12:40:39.041Z,54.20
2018-02-24T12:43:07.430Z,54.10
2018-02-24T12:45:35.841Z,54.00
2018-02-24T12:48:04.225Z,53.70
2018-02-24T12:50:33.396Z,53.10
2018-02-24T12:53:01.786Z,53.10
2018-02-24T12:55:30.196Z,54.80
2018-02-24T12:57:58.578Z,55.50
2018-02-24T13:00:26.790Z,55.90
2018-02-24T13:02:55.164Z,55.90
2018-02-24T13:05:24.348Z,55.10
2018-02-24T13:07:52.717Z,55.10
2018-02-24T13:10:21.090Z,54.20
2018-02-24T13:12:49.489Z,54.20
2018-02-24T13:15:17.863Z,52.10
2018-02-24T13:17:47.003Z,54.00
2018-02-24T13:20:16.168Z,53.70
2018-02-24T13:22:44.349Z,53.70
2018-02-24T13:25:14.491Z,54.40
2018-02-24T13:27:44.217Z,54.60
2018-02-24T13:30:12.614Z,54.50
2018-02-24T13:32:41.895Z,54.30
2018-02-24T13:35:10.287Z,54.90
2018-02-24T13:37:38.478Z,54.00
2018-02-24T13:40:06.894Z,53.70
2018-02-24T13:42:35.268Z,53.60
2018-02-24T13:45:03.338Z,54.00
2018-02-24T13:47:31.534Z,53.30
2018-02-24T13:50:00.680Z,52.80
2018-02-24T13:52:29.146Z,52.80
2018-02-24T13:54:57.522Z,53.50
2018-02-24T13:57:25.923Z,54.40
2018-02-24T13:59:54.300Z,52.80
2018-02-24T14:02:22.717Z,52.90
2018-02-24T14:04:51.852Z,54.10
2018-02-24T14:07:20.213Z,54.10
2018-02-24T14:09:48.606Z,52.60
2018-02-24T14:12:17.041Z,52.60
2018-02-24T14:14:46.214Z,53.40
2018-02-24T14:17:14.598Z,53.40
2018-02-24T14:19:43.021Z,53.20
2018-02-24T14:22:11.426Z,54.70
2018-02-24T14:24:39.792Z,51.70
2018-02-24T14:27:08.201Z,53.40
2018-02-24T14:29:36.586Z,52.90
2018-02-24T14:32:05.741Z,53.10
2018-02-24T14:34:34.133Z,53.10
2018-02-24T14:37:02.402Z,54.40
2018-02-24T14:39:30.778Z,53.10
2018-02-24T14:41:59.157Z,52.80
2018-02-24T14:44:27.589Z,52.80
2018-02-24T14:46:56.726Z,51.60
2018-02-24T14:49:25.118Z,51.60
2018-02-24T14:51:53.481Z,51.10
2018-02-24T14:54:22.620Z,51.40
2018-02-24T14:56:51.759Z,51.10
2018-02-24T14:59:19.962Z,51.10
2018-02-24T15:01:48.345Z,51.70
2018-02-24T15:04:16.807Z,53.40
2018-02-24T15:06:45.931Z,52.40
2018-02-24T15:09:14.954Z,52.20
2018-02-24T15:11:43.552Z,51.80
2018-02-24T15:14:11.923Z,52.00
2018-02-24T15:16:40.294Z,52.60
2018-02-24T15:19:08.695Z,51.70
2018-02-24T15:21:36.898Z,52.20
2018-02-24T15:24:05.274Z,53.40
2018-02-24T15:26:33.671Z,52.80
2018-02-24T15:29:02.616Z,52.80
2018-02-24T15:31:31.010Z,52.80
2018-02-24T15:33:59.401Z,52.30
2018-02-24T15:36:27.606Z,52.90
2018-02-24T15:38:56.167Z,52.20
2018-02-24T15:41:25.215Z,52.90
2018-02-24T15:43:53.293Z,52.80
2018-02-24T15:46:21.698Z,52.70
2018-02-24T15:48:50.082Z,52.90
2018-02-24T15:51:19.225Z,52.30
2018-02-24T15:53:47.621Z,52.00
2018-02-24T15:56:16.047Z,52.80
2018-02-24T15:58:45.221Z,52.90
2018-02-24T16:01:13.598Z,52.90
2018-02-24T16:03:41.982Z,53.20
2018-02-24T16:06:11.163Z,54.80
2018-02-24T16:08:39.546Z,54.60
2018-02-24T16:11:07.941Z,54.70
2018-02-24T16:13:37.115Z,53.60
2018-02-24T16:16:05.518Z,53.60
2018-02-24T16:18:34.690Z,55.00
2018-02-24T16:21:03.086Z,55.00
2018-02-24T16:23:32.258Z,54.60
2018-02-24T16:26:00.643Z,54.60
2018-02-24T16:28:28.851Z,55.90
2018-02-24T16:30:57.243Z,55.30
2018-02-24T16:33:25.646Z,56.10
2018-02-24T16:35:54.041Z,55.30
2018-02-24T16:38:22.474Z,55.20
2018-02-24T16:40:51.032Z,56.10
2018-02-24T16:43:20.196Z,56.10
2018-02-24T16:45:48.584Z,55.40
2018-02-24T16:48:16.983Z,55.30
2018-02-24T16:50:46.898Z,53.90
2018-02-24T16:53:16.919Z,54.60
2018-02-24T16:55:45.301Z,54.60
2018-02-24T16:58:13.699Z,54.40
2018-02-24T17:00:42.086Z,54.30
2018-02-24T17:03:10.494Z,53.70
2018-02-24T17:05:38.878Z,55.60
2018-02-24T17:08:07.270Z,55.10
2018-02-24T17:10:36.072Z,55.50
2018-02-24T17:13:04.465Z,54.70
2018-02-24T17:15:32.902Z,54.60
2018-02-24T17:18:01.300Z,55.50
2018-02-24T17:20:30.459Z,54.20
2018-02-24T17:22:58.876Z,54.20
2018-02-24T17:25:27.257Z,55.90
2018-02-24T17:27:55.654Z,55.70
2018-02-24T17:30:24.035Z,56.40
2018-02-24T17:32:52.454Z,54.80
2018-02-24T17:35:20.834Z,54.40
2018-02-24T17:37:49.032Z,55.60
2018-02-24T17:40:19.167Z,54.60
2018-02-24T17:42:47.367Z,54.60
2018-02-24T17:45:16.143Z,53.60
2018-02-24T17:47:45.457Z,53.20
2018-02-24T17:50:13.896Z,52.50
2018-02-24T17:52:42.285Z,53.10
2018-02-24T17:55:10.675Z,53.90
2018-02-24T17:57:39.082Z,54.20
2018-02-24T18:00:07.483Z,53.10
2018-02-24T18:02:36.651Z,53.80
2018-02-24T18:05:05.052Z,53.10
2018-02-24T18:07:33.450Z,54.10
2018-02-24T18:10:02.632Z,54.80
2018-02-24T18:12:31.792Z,53.70
2018-02-24T18:15:00.194Z,53.70
2018-02-24T18:17:28.581Z,53.60
2018-02-24T18:19:57.744Z,55.10
2018-02-24T18:22:26.909Z,54.00
2018-02-24T18:24:55.314Z,54.00
2018-02-24T18:27:23.689Z,53.40
2018-02-24T18:29:52.090Z,55.30
2018-02-24T18:32:20.471Z,54.60
2018-02-24T18:34:48.863Z,54.90
2018-02-24T18:37:18.021Z,55.10
2018-02-24T18:39:46.412Z,55.00
2018-02-24T18:42:14.812Z,54.70
2018-02-24T18:44:43.970Z,54.00
2018-02-24T18:47:12.180Z,53.90
2018-02-24T18:49:41.397Z,53.80
2018-02-24T18:52:09.785Z,53.70
2018-02-24T18:54:38.199Z,53.80
2018-02-24T18:57:06.620Z,53.80
2018-02-24T18:59:35.776Z,53.70
2018-02-24T19:02:04.168Z,53.70
2018-02-24T19:04:32.574Z,53.30
2018-02-24T19:07:00.949Z,52.80
2018-02-24T19:09:30.109Z,51.30
2018-02-24T19:11:58.505Z,51.20
2018-02-24T19:14:27.447Z,51.20
2018-02-24T19:16:55.970Z,51.50
2018-02-24T19:19:24.369Z,52.10
2018-02-24T19:21:53.522Z,51.80
2018-02-24T19:24:21.924Z,51.80
2018-02-24T19:26:50.371Z,53.70
2018-02-24T19:29:19.348Z,52.90
2018-02-24T19:31:47.720Z,53.30
2018-02-24T19:34:16.132Z,52.50
2018-02-24T19:36:44.535Z,52.40
2018-02-24T19:39:13.686Z,53.30
2018-02-24T19:41:42.084Z,53.20
2018-02-24T19:44:10.492Z,52.70
2018-02-24T19:46:39.664Z,53.00
2018-02-24T19:49:08.061Z,52.90
2018-02-24T19:51:37.232Z,52.50
2018-02-24T19:54:05.662Z,52.50
2018-02-24T19:56:34.076Z,52.60
2018-02-24T19:59:02.451Z,52.80
2018-02-24T20:01:30.920Z,52.60
2018-02-24T20:03:59.744Z,51.80
2018-02-24T20:06:28.092Z,51.80
2018-02-24T20:08:56.464Z,52.30
2018-02-24T20:11:24.846Z,51.90
2018-02-24T20:13:53.247Z,52.20
2018-02-24T20:16:21.729Z,53.00
2018-02-24T20:18:50.135Z,52.50
2018-02-24T20:21:18.515Z,52.40
2018-02-24T20:23:47.722Z,52.20
2018-02-24T20:26:16.559Z,52.80
2018-02-24T20:28:45.355Z,52.80
2018-02-24T20:31:13.776Z,53.00
2018-02-24T20:33:42.173Z,52.80
2018-02-24T20:36:10.577Z,53.00
2018-02-24T20:38:38.990Z,51.90
2018-02-24T20:41:07.376Z,51.90
2018-02-24T20:43:35.759Z,53.10
2018-02-24T20:46:03.966Z,53.20
2018-02-24T20:48:32.356Z,53.30
2018-02-24T20:51:00.752Z,53.30
2018-02-24T20:53:29.135Z,54.30
2018-02-24T20:55:58.110Z,54.10
2018-02-24T20:58:27.687Z,54.10
2018-02-24T21:00:57.043Z,54.50
2018-02-24T21:03:27.059Z,54.50
2018-02-24T21:05:57.309Z,54.70
2018-02-24T21:08:26.486Z,54.60
2018-02-24T21:10:54.897Z,54.10
2018-02-24T21:13:23.342Z,54.10
2018-02-24T21:15:51.738Z,54.10
2018-02-24T21:18:20.122Z,54.50
2018-02-24T21:20:48.506Z,54.50
2018-02-24T21:23:17.104Z,54.10
2018-02-24T21:25:45.530Z,54.70
2018-02-24T21:28:13.940Z,55.00
2018-02-24T21:30:42.403Z,54.50
2018-02-24T21:33:10.855Z,54.30
2018-02-24T21:35:39.823Z,54.30
2018-02-24T21:38:08.209Z,54.30
2018-02-24T21:40:37.410Z,54.40
2018-02-24T21:43:06.548Z,54.70
2018-02-24T21:45:34.967Z,54.70
2018-02-24T21:48:03.393Z,54.80
2018-02-24T21:50:32.235Z,55.20
2018-02-24T21:53:00.642Z,55.50
2018-02-24T21:55:29.306Z,55.20
2018-02-24T21:57:57.526Z,55.90
2018-02-24T22:00:26.948Z,55.50
2018-02-24T22:02:55.326Z,55.50
2018-02-24T22:05:23.820Z,54.70
2018-02-24T22:07:52.493Z,55.70
2018-02-24T22:10:21.233Z,55.20
2018-02-24T22:12:49.909Z,55.80
2018-02-24T22:15:18.678Z,55.40
2018-02-24T22:17:47.015Z,55.00
2018-02-24T22:20:15.732Z,54.20
2018-02-24T22:22:44.399Z,55.40
2018-02-24T22:25:12.896Z,54.90
2018-02-24T22:27:41.398Z,55.60
2018-02-24T22:30:10.058Z,55.00
2018-02-24T22:32:38.738Z,53.60
2018-02-24T22:35:07.423Z,54.60
2018-02-24T22:37:35.897Z,55.00
2018-02-24T22:40:04.276Z,55.40
2018-02-24T22:42:32.968Z,55.10
2018-02-24T22:45:01.634Z,55.00
2018-02-24T22:47:35.850Z,54.60
2018-02-24T22:50:05.032Z,55.40
2018-02-24T22:52:33.724Z,55.30
2018-02-24T22:55:02.382Z,56.30
2018-02-24T22:57:31.791Z,55.60
2018-02-24T23:00:01.247Z,55.00
2018-02-24T23:02:45.688Z,55.00
2018-02-24T23:05:14.392Z,56.20
2018-02-24T23:07:43.050Z,55.30
2018-02-24T23:10:11.712Z,55.70
2018-02-24T23:12:41.452Z,54.50
2018-02-24T23:15:10.106Z,55.40
2018-02-24T23:17:38.757Z,55.30
2018-02-24T23:20:07.423Z,55.70
2018-02-24T23:22:36.083Z,55.60
2018-02-24T23:25:04.772Z,55.60
2018-02-24T23:27:33.438Z,54.60
2018-02-24T23:30:01.912Z,55.30
2018-02-24T23:32:30.582Z,54.90
2018-02-24T23:34:59.252Z,55.40
2018-02-24T23:37:28.669Z,55.50
2018-02-24T23:39:57.154Z,55.50
2018-02-24T23:42:25.803Z,55.60
2018-02-24T23:44:54.470Z,56.20
2018-02-24T23:47:24.566Z,54.70
2018-02-24T23:49:53.227Z,55.00
2018-02-24T23:52:21.903Z,53.90
2018-02-24T23:54:50.574Z,55.30
2018-02-24T23:57:20.022Z,55.60
2018-02-24T23:59:49.463Z,55.40
